Gulf Shores, Alabama
Current Conditions -  °F | °C
As of 3:35 PM on Thursday 23 Oct 2014 (Local Time) from KJKA Reporting Station
Clear Clear  
Wind Chill: 72°   Ceiling: Unl
Heat Index: 72°   Visibility: 10mi
Dew Point: 50°   Wind: 8mph
Humidity: 46%   Direction: 170°S
Pressure: 30.02"   Gusts: NA
Location:  30.27°N, 87.7°W
Report Text: KJKA 232035Z AUTO 17007KT 10SM CLR 22/10 A3002 RMK AO2 T02230101
Loading
Personal Weather Stations






























Interactive Weather Map New forecast layout! Learn more

10-Day Weather Forecast

Advertisements
Track Severe Weather on mobile